createdAt,value
2023-04-27T00:02:12.931Z,98394.00
2023-04-27T00:05:22.623Z,98395.72
2023-04-27T00:08:28.171Z,98397.25
2023-04-27T00:12:15.371Z,98390.34
2023-04-27T00:15:39.795Z,98394.94
2023-04-27T00:18:47.100Z,98390.75
2023-04-27T00:21:55.455Z,98383.84
2023-04-27T00:25:01.874Z,98382.91
2023-04-27T00:28:08.105Z,98391.69
2023-04-27T00:31:14.457Z,98388.50
2023-04-27T00:34:19.984Z,98393.16
2023-04-27T00:37:29.960Z,98389.25
2023-04-27T00:40:35.727Z,98395.78
2023-04-27T00:43:47.314Z,98388.88
2023-04-27T00:46:53.046Z,98393.50
2023-04-27T00:49:59.632Z,98394.91
2023-04-27T00:53:09.823Z,98373.09
2023-04-27T00:56:16.699Z,98395.44
2023-04-27T00:59:23.565Z,98396.97
2023-04-27T01:02:33.201Z,98401.13
2023-04-27T01:05:41.081Z,98394.91
2023-04-27T01:08:50.320Z,98381.78
2023-04-27T01:11:56.309Z,98389.56
2023-04-27T01:15:03.299Z,98396.97
2023-04-27T01:18:09.658Z,98389.34
2023-04-27T01:21:16.209Z,98350.53
2023-04-27T01:24:24.428Z,98392.88
2023-04-27T01:27:30.773Z,98393.72
2023-04-27T01:30:36.278Z,98399.06
2023-04-27T01:33:43.229Z,98402.53
2023-04-27T01:36:48.875Z,98403.38
2023-04-27T01:39:58.278Z,98399.13
2023-04-27T01:43:04.101Z,98402.56
2023-04-27T01:46:11.845Z,98404.28
2023-04-27T01:49:17.687Z,98409.50
2023-04-27T01:52:24.002Z,98408.91
2023-04-27T01:55:32.482Z,98405.03
2023-04-27T01:58:38.853Z,98406.09
2023-04-27T02:01:44.365Z,98412.22
2023-04-27T02:04:51.056Z,98407.00
2023-04-27T02:07:57.989Z,98413.53
2023-04-27T02:11:07.418Z,98412.84
2023-04-27T02:14:13.116Z,98413.16
2023-04-27T02:17:19.823Z,98412.41
2023-04-27T02:20:25.981Z,98414.25
2023-04-27T02:23:33.153Z,98410.03
2023-04-27T02:26:43.202Z,98407.31
2023-04-27T02:29:50.088Z,98404.47
2023-04-27T02:32:56.460Z,98404.34
2023-04-27T02:36:03.898Z,98414.00
2023-04-27T02:39:09.403Z,98408.59
2023-04-27T02:42:21.305Z,98408.53
2023-04-27T02:45:26.811Z,98405.81
2023-04-27T02:48:34.993Z,98338.00
2023-04-27T02:51:43.283Z,98409.03
2023-04-27T02:54:49.857Z,98407.31
2023-04-27T02:57:58.352Z,98410.78
2023-04-27T03:01:05.052Z,98402.19
2023-04-27T03:04:11.202Z,98404.81
2023-04-27T03:07:17.703Z,98413.63
2023-04-27T03:10:23.400Z,98394.19
2023-04-27T03:13:38.829Z,98418.28
2023-04-27T03:16:45.255Z,98413.34
2023-04-27T03:19:52.836Z,98423.63
2023-04-27T03:22:58.339Z,98427.47
2023-04-27T03:26:04.757Z,98422.41
2023-04-27T03:29:13.326Z,98429.69
2023-04-27T03:32:19.788Z,98427.50
2023-04-27T03:35:25.366Z,98426.72
2023-04-27T03:38:32.370Z,98435.34
2023-04-27T03:41:37.921Z,98433.75
2023-04-27T03:44:47.040Z,98438.31
2023-04-27T03:47:53.492Z,98440.78
2023-04-27T03:50:59.991Z,98447.56
2023-04-27T03:54:05.914Z,98443.22
2023-04-27T03:57:12.348Z,98448.47
2023-04-27T04:00:21.547Z,98452.78
2023-04-27T04:03:28.285Z,98451.78
2023-04-27T04:06:34.090Z,98459.38
2023-04-27T04:09:40.493Z,98456.47
2023-04-27T04:12:46.037Z,98457.97
2023-04-27T04:16:05.199Z,98458.53
2023-04-27T04:19:12.300Z,98453.09
2023-04-27T04:22:18.823Z,98462.53
2023-04-27T04:25:26.390Z,98460.72
2023-04-27T04:28:33.564Z,98459.63
2023-04-27T04:31:42.572Z,98472.66
2023-04-27T04:34:53.722Z,98472.13
2023-04-27T04:38:00.805Z,98472.91
2023-04-27T04:41:08.636Z,98446.41
2023-04-27T04:44:14.226Z,98476.72
2023-04-27T04:47:23.421Z,98483.38
2023-04-27T04:50:31.331Z,98481.53
2023-04-27T04:53:38.299Z,98494.16
2023-04-27T04:56:43.781Z,98485.00
2023-04-27T04:59:50.207Z,98489.31
2023-04-27T05:02:59.065Z,98494.53
2023-04-27T05:06:05.654Z,98490.13
2023-04-27T05:09:11.457Z,98497.47
2023-04-27T05:12:18.224Z,98494.44
2023-04-27T05:15:23.694Z,98497.84
2023-04-27T05:18:32.853Z,98494.09
2023-04-27T05:21:38.645Z,98499.63
2023-04-27T05:24:44.930Z,98504.97
2023-04-27T05:27:50.429Z,98510.59
2023-04-27T05:30:56.774Z,98510.59
2023-04-27T05:34:05.078Z,98510.16
2023-04-27T05:37:11.912Z,98504.81
2023-04-27T05:40:18.681Z,98517.34
2023-04-27T05:43:25.343Z,98508.50
2023-04-27T05:46:30.884Z,98518.13
2023-04-27T05:49:40.097Z,98521.00
2023-04-27T05:52:45.563Z,98522.44
2023-04-27T05:55:51.833Z,98520.97
2023-04-27T05:58:57.264Z,98527.25
2023-04-27T06:02:03.630Z,98526.97
2023-04-27T06:05:14.113Z,98533.44
2023-04-27T06:08:20.721Z,98534.00
2023-04-27T06:11:26.263Z,98532.75
2023-04-27T06:14:32.593Z,98520.75
2023-04-27T06:17:38.317Z,98535.22
2023-04-27T06:20:47.541Z,98540.94
2023-04-27T06:23:53.191Z,98537.69
2023-04-27T06:26:59.560Z,98545.63
2023-04-27T06:30:05.366Z,98548.78
2023-04-27T06:33:12.656Z,98549.66
2023-04-27T06:36:21.510Z,98540.44
2023-04-27T06:39:28.137Z,98548.91
2023-04-27T06:42:33.849Z,98546.19
2023-04-27T06:45:40.716Z,98545.38
2023-04-27T06:48:46.741Z,98543.38
2023-04-27T06:51:56.189Z,98550.13
2023-04-27T06:55:01.885Z,98548.75
2023-04-27T06:58:08.590Z,98541.06
2023-04-27T07:01:14.215Z,98548.63
2023-04-27T07:04:21.084Z,98550.19
2023-04-27T07:07:29.625Z,98558.81
2023-04-27T07:10:36.310Z,98553.09
2023-04-27T07:13:42.173Z,98546.97
2023-04-27T07:16:48.529Z,98556.69
2023-04-27T07:19:54.889Z,98552.66
2023-04-27T07:23:04.323Z,98546.78
2023-04-27T07:26:10.276Z,98548.59
2023-04-27T07:29:26.568Z,98545.69
2023-04-27T07:32:32.633Z,98555.25
2023-04-27T07:35:41.780Z,98545.38
2023-04-27T07:38:50.133Z,98548.00
2023-04-27T07:41:56.821Z,98548.19
2023-04-27T07:45:02.373Z,98538.03
2023-04-27T07:48:10.062Z,98536.03
2023-04-27T07:51:16.709Z,98534.09
2023-04-27T07:54:25.873Z,98546.63
2023-04-27T07:57:31.872Z,98544.69
2023-04-27T08:00:38.654Z,98548.69
2023-04-27T08:03:44.471Z,98538.06
2023-04-27T08:06:54.229Z,98549.94
2023-04-27T08:10:03.345Z,98545.38
2023-04-27T08:13:10.326Z,98551.50
2023-04-27T08:16:15.848Z,98557.91
2023-04-27T08:19:22.284Z,98553.00
2023-04-27T08:22:27.793Z,98563.66
2023-04-27T08:25:38.743Z,98557.03
2023-04-27T08:28:44.301Z,98547.41
2023-04-27T08:31:51.021Z,98550.91
2023-04-27T08:34:56.551Z,98556.75
2023-04-27T08:38:02.986Z,98550.94
2023-04-27T08:41:21.347Z,98563.66
2023-04-27T08:44:28.599Z,98554.53
2023-04-27T08:47:42.518Z,98567.84
2023-04-27T08:50:54.753Z,98551.09
2023-04-27T08:54:02.419Z,98551.94
2023-04-27T08:57:16.602Z,98540.13
2023-04-27T09:00:24.683Z,98553.94
2023-04-27T09:03:31.488Z,98551.69
2023-04-27T09:06:38.973Z,98565.41
2023-04-27T09:09:45.808Z,98554.00
2023-04-27T09:13:02.556Z,98546.78
2023-04-27T09:16:09.733Z,98425.44
2023-04-27T09:19:15.969Z,98560.56
2023-04-27T09:22:22.435Z,98559.44
2023-04-27T09:25:34.890Z,98555.31
2023-04-27T09:28:52.149Z,98548.56
2023-04-27T09:31:57.742Z,98563.03
2023-04-27T09:35:24.782Z,98549.00
2023-04-27T09:38:32.971Z,98540.09
2023-04-27T09:41:40.536Z,98542.38
2023-04-27T09:44:48.839Z,98537.63
2023-04-27T09:47:56.137Z,98557.41
2023-04-27T09:51:01.888Z,98550.25
2023-04-27T09:54:10.172Z,98543.19
2023-04-27T09:57:36.837Z,98547.09
2023-04-27T10:01:07.671Z,98548.31
2023-04-27T10:04:46.074Z,98540.13
2023-04-27T10:07:59.004Z,98548.13
2023-04-27T10:11:04.727Z,98551.13
2023-04-27T10:14:19.197Z,98554.00
2023-04-27T10:17:35.350Z,98557.69
2023-04-27T10:20:42.225Z,98558.19
2023-04-27T10:23:52.168Z,98553.34
2023-04-27T10:27:07.270Z,98557.34
2023-04-27T10:30:20.969Z,98553.88
2023-04-27T10:33:30.273Z,98558.56
2023-04-27T10:36:41.238Z,98552.56
2023-04-27T10:39:50.177Z,98543.06
2023-04-27T10:42:57.224Z,98413.59
2023-04-27T10:46:16.049Z,98541.22
2023-04-27T10:49:25.260Z,98536.56
2023-04-27T10:52:36.518Z,98551.09
2023-04-27T10:55:42.423Z,98555.75
2023-04-27T10:58:49.673Z,98557.19
2023-04-27T11:01:58.455Z,98564.75
2023-04-27T11:05:19.297Z,98557.19
2023-04-27T11:08:25.044Z,98563.03
2023-04-27T11:11:31.794Z,98554.06
2023-04-27T11:14:38.916Z,98559.72
2023-04-27T11:17:45.804Z,98569.56
2023-04-27T11:20:58.531Z,98563.22
2023-04-27T11:24:11.276Z,98566.09
2023-04-27T11:27:18.274Z,98560.81
2023-04-27T11:30:27.235Z,98498.34
2023-04-27T11:33:33.269Z,98557.06
2023-04-27T11:36:44.101Z,98561.50
2023-04-27T11:39:50.094Z,98569.06
2023-04-27T11:43:04.465Z,98567.31
2023-04-27T11:46:11.408Z,98568.69
2023-04-27T11:49:18.062Z,98577.75
2023-04-27T11:52:32.167Z,98568.53
2023-04-27T11:55:41.570Z,98580.75
2023-04-27T11:58:47.896Z,98568.19
2023-04-27T12:01:55.339Z,98577.28
2023-04-27T12:05:03.259Z,98581.50
2023-04-27T12:08:13.122Z,98578.47
2023-04-27T12:11:21.819Z,98583.66
2023-04-27T12:14:28.421Z,98572.19
2023-04-27T12:17:34.159Z,98575.56
2023-04-27T12:20:42.162Z,98590.44
2023-04-27T12:23:51.099Z,98566.53
2023-04-27T12:26:59.730Z,98575.22
2023-04-27T12:30:05.579Z,98569.47
2023-04-27T12:33:12.416Z,98566.94
2023-04-27T12:36:18.255Z,98577.66
2023-04-27T12:39:27.945Z,98562.91
2023-04-27T12:42:33.632Z,98567.56
2023-04-27T12:45:40.250Z,98563.88
2023-04-27T12:48:46.715Z,98570.91
2023-04-27T12:51:54.378Z,98582.31
2023-04-27T12:55:04.974Z,98570.91
2023-04-27T12:58:11.591Z,98572.59
2023-04-27T13:01:17.860Z,98559.72
2023-04-27T13:04:25.147Z,98585.81
2023-04-27T13:07:31.386Z,98567.19
2023-04-27T13:10:41.706Z,98563.03
2023-04-27T13:13:48.301Z,98565.53
2023-04-27T13:16:57.241Z,98574.66
2023-04-27T13:20:03.304Z,98569.22
2023-04-27T13:23:10.481Z,98567.91
2023-04-27T13:26:19.518Z,98576.38
2023-04-27T13:29:27.493Z,98571.66
2023-04-27T13:32:34.046Z,98579.50
2023-04-27T13:35:40.679Z,98563.75
2023-04-27T13:38:46.837Z,98583.63
2023-04-27T13:41:57.926Z,98571.41
2023-04-27T13:45:05.227Z,98567.44
2023-04-27T13:48:14.417Z,98576.16
2023-04-27T13:51:20.595Z,98557.84
2023-04-27T13:54:27.614Z,98584.31
2023-04-27T13:57:36.609Z,98549.50
2023-04-27T14:00:43.304Z,98581.00
2023-04-27T14:03:49.269Z,98577.31
2023-04-27T14:06:56.321Z,98573.72
2023-04-27T14:10:02.143Z,98579.09
2023-04-27T14:13:11.692Z,98578.00
2023-04-27T14:16:17.633Z,98575.03
2023-04-27T14:19:27.702Z,98586.34
2023-04-27T14:22:33.690Z,98575.84
2023-04-27T14:25:40.348Z,98579.22
2023-04-27T14:28:50.307Z,98597.75
2023-04-27T14:31:58.016Z,98597.09
2023-04-27T14:35:03.943Z,98596.47
2023-04-27T14:38:10.860Z,98604.25
2023-04-27T14:41:16.868Z,98589.22
2023-04-27T14:44:27.094Z,98594.75
2023-04-27T14:47:33.205Z,98600.50
2023-04-27T14:50:40.063Z,98587.44
2023-04-27T14:53:47.129Z,98589.59
2023-04-27T14:56:53.768Z,98586.09
2023-04-27T15:00:06.667Z,98589.03
2023-04-27T15:03:13.561Z,98593.88
2023-04-27T15:06:19.917Z,98596.16
2023-04-27T15:09:26.942Z,98589.97
2023-04-27T15:12:32.991Z,98592.00
2023-04-27T15:15:45.734Z,98603.75
2023-04-27T15:18:51.766Z,98617.28
2023-04-27T15:21:58.194Z,98603.63
2023-04-27T15:25:05.473Z,98612.81
2023-04-27T15:28:12.163Z,98610.66
2023-04-27T15:31:20.642Z,98598.47
2023-04-27T15:34:27.291Z,98601.53
2023-04-27T15:37:33.229Z,98595.72
2023-04-27T15:40:42.185Z,98599.88
2023-04-27T15:43:47.865Z,98598.34
2023-04-27T15:46:57.341Z,98599.09
2023-04-27T15:50:03.628Z,98602.34
2023-04-27T15:53:10.234Z,98603.38
2023-04-27T15:56:16.620Z,98609.06
2023-04-27T15:59:23.238Z,98603.09
2023-04-27T16:02:33.125Z,98595.91
2023-04-27T16:05:42.748Z,98606.00
2023-04-27T16:08:48.651Z,98606.06
2023-04-27T16:11:55.963Z,98604.19
2023-04-27T16:15:01.840Z,98617.34
2023-04-27T16:18:11.472Z,98615.13
2023-04-27T16:21:18.770Z,98611.56
2023-04-27T16:24:25.514Z,98612.97
2023-04-27T16:27:31.390Z,98611.94
2023-04-27T16:30:40.257Z,98605.47
2023-04-27T16:33:50.525Z,98608.56
2023-04-27T16:36:58.408Z,98610.09
2023-04-27T16:40:07.071Z,98609.03
2023-04-27T16:43:14.089Z,98617.03
2023-04-27T16:46:20.204Z,98614.75
2023-04-27T16:49:29.926Z,98615.25
2023-04-27T16:52:36.087Z,98617.41
2023-04-27T16:55:45.330Z,98614.03
2023-04-27T16:58:51.399Z,98614.94
2023-04-27T17:02:06.010Z,98624.94
2023-04-27T17:05:22.224Z,98623.22
2023-04-27T17:08:29.381Z,98609.31
2023-04-27T17:11:35.192Z,98624.00
2023-04-27T17:14:42.907Z,98619.50
2023-04-27T17:17:48.924Z,98627.84
2023-04-27T17:21:00.118Z,98625.66
2023-04-27T17:24:07.186Z,98631.88
2023-04-27T17:27:14.465Z,98628.97
2023-04-27T17:30:20.317Z,98628.84
2023-04-27T17:33:28.394Z,98633.56
2023-04-27T17:36:37.461Z,98624.41
2023-04-27T17:39:44.500Z,98634.63
2023-04-27T17:42:56.668Z,98624.09
2023-04-27T17:46:04.072Z,98629.53
2023-04-27T17:49:13.983Z,98630.75
2023-04-27T17:52:24.239Z,98632.78
2023-04-27T17:55:30.417Z,98632.31
2023-04-27T17:58:38.023Z,98633.69
2023-04-27T18:01:48.666Z,98643.97
2023-04-27T18:04:58.704Z,98643.06
2023-04-27T18:08:07.617Z,98644.69
2023-04-27T18:11:14.675Z,98644.28
2023-04-27T18:14:20.837Z,98646.31
2023-04-27T18:17:29.038Z,98647.59
2023-04-27T18:20:35.297Z,98651.16
2023-04-27T18:23:46.421Z,98649.44
2023-04-27T18:26:53.839Z,98653.03
2023-04-27T18:30:00.717Z,98650.56
2023-04-27T18:33:07.559Z,98658.34
2023-04-27T18:36:15.960Z,98668.03
2023-04-27T18:39:25.166Z,98669.84
2023-04-27T18:42:34.889Z,98662.25
2023-04-27T18:45:41.063Z,98665.88
2023-04-27T18:48:50.155Z,98667.75
2023-04-27T18:51:56.245Z,98664.38
2023-04-27T18:55:06.728Z,98660.19
2023-04-27T18:58:13.051Z,98669.19
2023-04-27T19:01:24.328Z,98670.22
2023-04-27T19:04:31.950Z,98671.34
2023-04-27T19:07:41.500Z,98672.41
2023-04-27T19:10:54.972Z,98670.81
2023-04-27T19:14:02.167Z,98677.06
2023-04-27T19:17:08.753Z,98678.31
2023-04-27T19:20:15.812Z,98684.28
2023-04-27T19:23:22.490Z,98677.16
2023-04-27T19:26:32.451Z,98682.88
2023-04-27T19:29:54.428Z,98690.41
2023-04-27T19:33:05.045Z,98690.91
2023-04-27T19:36:12.483Z,98700.81
2023-04-27T19:39:22.663Z,98691.69
2023-04-27T19:42:34.224Z,98694.28
2023-04-27T19:45:42.281Z,98695.22
2023-04-27T19:48:49.024Z,98694.34
2023-04-27T19:51:56.746Z,98694.72
2023-04-27T19:55:03.653Z,98690.88
2023-04-27T19:58:13.669Z,98694.72
2023-04-27T20:01:22.242Z,98694.97
2023-04-27T20:04:29.233Z,98700.41
2023-04-27T20:07:35.744Z,98698.00
2023-04-27T20:10:43.779Z,98694.53
2023-04-27T20:13:53.026Z,98690.34
2023-04-27T20:16:59.856Z,98698.88
2023-04-27T20:20:10.352Z,98697.00
2023-04-27T20:23:19.856Z,98699.25
2023-04-27T20:26:26.422Z,98691.88
2023-04-27T20:29:36.738Z,98696.75
2023-04-27T20:32:42.726Z,98695.69
2023-04-27T20:35:55.525Z,98702.44
2023-04-27T20:39:05.796Z,98702.31
2023-04-27T20:42:13.209Z,98701.38
2023-04-27T20:45:22.166Z,98705.69
2023-04-27T20:48:30.139Z,98703.84
2023-04-27T20:51:36.903Z,98693.50
2023-04-27T20:54:44.591Z,98708.06
2023-04-27T20:57:50.962Z,98699.31
2023-04-27T21:01:00.794Z,98706.25
2023-04-27T21:04:09.637Z,98706.94
2023-04-27T21:07:16.373Z,98702.53
2023-04-27T21:10:22.315Z,98703.53
2023-04-27T21:13:28.981Z,98695.97
2023-04-27T21:16:37.787Z,98700.59
2023-04-27T21:19:44.995Z,98700.91
2023-04-27T21:22:50.868Z,98694.25
2023-04-27T21:25:57.520Z,98699.97
2023-04-27T21:29:05.961Z,98695.25
2023-04-27T21:32:16.095Z,98702.66
2023-04-27T21:35:21.960Z,98701.38
2023-04-27T21:38:28.693Z,98703.53
2023-04-27T21:41:34.445Z,98704.59
2023-04-27T21:44:41.272Z,98703.97
2023-04-27T21:47:49.939Z,98712.09
2023-04-27T21:50:56.521Z,98716.69
2023-04-27T21:54:02.179Z,98707.22
2023-04-27T21:57:08.776Z,98716.84
2023-04-27T22:00:17.619Z,98715.00
2023-04-27T22:03:27.106Z,98711.44
2023-04-27T22:06:33.965Z,98707.78
2023-04-27T22:09:40.249Z,98717.97
2023-04-27T22:12:47.196Z,98719.38
2023-04-27T22:15:53.636Z,98706.16
2023-04-27T22:19:02.999Z,98710.31
2023-04-27T22:22:10.239Z,98704.19
2023-04-27T22:25:16.356Z,98698.31
2023-04-27T22:28:23.003Z,98712.16
2023-04-27T22:31:28.726Z,98709.59
2023-04-27T22:34:38.439Z,98704.53
2023-04-27T22:37:44.875Z,98707.22
2023-04-27T22:40:51.426Z,98701.25
2023-04-27T22:43:57.296Z,98705.66
2023-04-27T22:47:04.702Z,98705.66
2023-04-27T22:50:14.610Z,98709.06
2023-04-27T22:53:21.397Z,98707.22
2023-04-27T22:56:27.096Z,98712.22
2023-04-27T22:59:33.420Z,98714.69
2023-04-27T23:02:39.275Z,98714.66
2023-04-27T23:05:48.602Z,98713.72
2023-04-27T23:08:54.100Z,98711.84
2023-04-27T23:12:01.329Z,98710.19
2023-04-27T23:15:07.412Z,98712.81
2023-04-27T23:18:13.809Z,98716.41
2023-04-27T23:21:22.150Z,98710.31
2023-04-27T23:24:28.569Z,98708.47
2023-04-27T23:27:34.330Z,98716.47
2023-04-27T23:30:41.035Z,98713.84
2023-04-27T23:33:46.571Z,98713.94
2023-04-27T23:36:55.664Z,98712.16
2023-04-27T23:40:01.369Z,98704.22
2023-04-27T23:43:07.982Z,98707.97
2023-04-27T23:46:13.474Z,98700.13
2023-04-27T23:49:19.784Z,98696.75
2023-04-27T23:52:28.048Z,98690.59
2023-04-27T23:55:36.835Z,98688.13
2023-04-27T23:58:42.323Z,98688.13
